AirNav   Everest Fuels
 
 1030 users online  

77CO UCH-MHS Memorial North Heliport
Colorado Springs, Colorado, USA

GOING TO COLORADO SPRINGS?


FAA INFORMATION EFFECTIVE 28 MARCH 2019

Location

FAA Identifier: 77CO
Lat/Long: 38-57-58.8900N / 104-45-21.6400W
38-57.981500N / 104-45.360667W
38.9663583 / -104.7560111
(estimated)
Elevation: 6901 ft. / 2103 m
From city: 10 miles SW of COLORADO SPRINGS, CO
Time zone: UTC -6 (UTC -7 during Standard Time)
Zip code: 80920

Heliport Operations

Heliport use: Private use. Permission required prior to landing
Activation date: 05/2007
Control tower: no
ARTCC: DENVER CENTER
FSS: DENVER FLIGHT SERVICE STATION
Attendance: UNATNDD
Segmented circle: no

Heliport Communications

WX AWOS-3PT at FLY (9 nm E): 118.450 (719-683-5371)
WX ASOS at COS (10 nm S): 125.0 (719-637-9696)
WX AWOS-3 at FCS (17 nm S): 125.0 (719-637-9696)

Nearby radio navigation aids

VOR radial/distance  VOR name  Freq  Var
BRKr275/5.9BLACK FOREST VOR/DME112.5008E
FCSr348/17.1BUTTS VOR/DME108.8012E

 
NDB name  Hdg/Dist  Freq  Var  ID
IRONHORSE348/17.333512EIHS .. .... ...

Heliport Services

Runway Information

Helipad H1

Dimensions: 63 x 63 ft. / 19 x 19 m
Surface: concrete, in good condition
Latitude: 38-57.981500N
Longitude: 104-45.360667W
Elevation: 6901.0 ft.
Traffic pattern: leftleft

Heliport Ownership and Management from official FAA records

Ownership: Privately-owned
Owner: UCH - MHS
1700 EAST BOULDER ST
COLORADO SPRINGS, CO 80909
Phone 719-365-5000
Manager: MICHAEL THRALLS
1700 EAST BOULDER ST
COLORADO SPRINGS, CO 80909
Phone 719-365-5000

Instrument Procedures

There are no published instrument procedures at 77CO.

Some nearby airports with instrument procedures:

KCOS - City of Colorado Springs Municipal Airport (10 nm S)
1V6 - Fremont County Airport (36 nm SW)
KAPA - Centennial Airport (36 nm N)
KPUB - Pueblo Memorial Airport (42 nm S)
KBKF - Buckley Air Force Base (44 nm N)
 
Loc | Ops | Rwys | IFR | FBO | Links
Com | Nav | Svcs | Stats | Notes
Aerial photo
No photo
 
Sectional chart

 
Airport distance calculator
Flying to UCH-MHS Memorial North Heliport? Find the distance to fly.

From to 77CO

Sunrise and sunset
Times for 24-Apr-2019
 Local
(UTC-6)
 Zulu
(UTC)
Morning civil twilight05:4311:43
Sunrise06:1112:11
Sunset19:4401:44
Evening civil twilight20:1202:12

Current date and time
Zulu (UTC)  24-Apr-2019 23:12:20
Local (UTC-6)  24-Apr-2019 17:12:20
 
METAR
KAFF 
3nm W 
242258Z AUTO 00000KT 10SM BKN100 OVC120 19/M03 A2995 RMK AO2 SLP099 T01891033
KFLY 
9nm E 
242255Z AUTO 36009G18KT 310V030 10SM SCT100 BKN110 20/M04 A3001 RMK AO2 T02031040
KCOS 
9nm S 
242254Z 07007KT 10SM SCT100 BKN120 BKN220 21/M03 A2996 RMK AO2 SLP088 T02061028
KMNH 
16nm N 
242254Z AUTO 10SM SCT110 16/M02 A3002 RMK AO2
KFCS 
18nm S 
242258Z AUTO 20005KT 10SM BKN100 OVC120 21/M03 A2993 RMK AO2 SLP106 T02051026 $
TAF
KAFF 
3nm W 
241902Z 2419/2601 35010G15KT 9999 FEW100 SCT250 QNH2997INS BECMG 2420/2421 35010G15KT 9999 VCSH BKN080 BKN250 QNH2998INS BECMG 2501/2502 35009KT 9999 NSW SCT020 BKN050 QNH3006INS BECMG 2506/2507 35012G20KT 9999 SCT020 BKN050 QNH3003INS BECMG 2508/2509 35020G30KT 9999 BKN020 OVC050 620353 520009 QNH3005INS BECMG 2515/2516 35012G25KT 9999 FEW020 BKN060 QNH3024INS BECMG 2518/2519 04012KT 9999 VCSH SCT060 BKN100 QNH3019INS BECMG 2521/2522 16012KT 9999 VCTS SCT040 BKN080CB QNH3013INS TX21/2422Z TN06/
KCOS 
9nm S 
241731Z 2418/2518 03007KT P6SM SCT070 BKN100 FM242300 34008KT P6SM BKN070 FM250900 35017G27KT P6SM VCSH BKN035 FM251600 35012KT P6SM SCT040 SCT070
KFCS 
18nm S 
242102Z 2421/2603 32012KT 9999 BKN100 QNH2996INS BECMG 2500/2501 35009KT 9999 BKN080 QNH2995INS BECMG 2508/2509 35015G25KT 9999 SCT020 OVC050 520009 QNH3001INS BECMG 2517/2518 12012KT 9999 FEW030 BKN060 QNH3016INS TX21/2423Z TN07/2512Z
NOTAMs
Click for the latest NOTAMs
NOTAMs are issued by the DoD/FAA and will open in a separate window not controlled by AirNav.

 

 
 

Would you like to see your business listed on this page?

 If your business provides an interesting product or service to pilots, flight crews, aircraft, or users of the UCH-MHS Memorial North Heliport, you should consider listing it here.  To start the listing process, click on the button below
 
Add a business
 

Other Pages about UCH-MHS Memorial North Heliport

Update a link
 
Copyright © AirNav, LLC. All rights reserved. Privacy Policy  Contact